Pagina principală
METAR-TAF:

METAR-TAF

Aeroporturi :

Dubbo, Australia

Latitudine: 32-12S, longitudine: 148-34E, elevație: 275 m

Observații meteo curente

Raportul a fost făcut în urmă cu 23 de minute, la 10:30 UTC
Vânt 9 kt de la Sud-est
Temperatură 11°C
Umiditate 76%
Presiune 1027 hPa
Vizibilitate de 10 km sau mai mult

METAR: YSDU 281030Z AUTO 14009KT 9999 // NCD 11/07 Q1027 RF00.0/000.0

Ora: 20:53 (10:53 UTC)

Prognoză

Raportul a fost făcut în urmă cu 6 ore și 6 de minute, la 04:47 UTC
Prognoză valabilă de la 28 ora 06 UTC la 29 ora 00 UTC
Vânt 7 kt de la Est
Vizibilitate de 10 km sau mai mult
nu există nori sub 1.500 m și nici cumulonimbus

TAF: YSDU 280447Z 2806/2900 10007KT CAVOK

Observații și prognoze meteo pentru peste 4.000 de aeroporturi (rapoarte METAR și TAF).

Stațiile disponibile sunt reprezentate pe hartă prin puncte galbene și roșii.

Țineți indicatorul mouse-ului pe punctul dorit pentru a vedea denumirea stației.

Apoi, faceți clic pentru a vedea observațiile și prognozele meteorologice.

Pentru a schimba harta: Pentru mărire, faceți clic pe butoanele verzi cu cruce neagră; pentru micșorare, pe butonul verde cu o liniuță; pentru hărți învecinate, pe săgețile verzi.


METAR-TAF: